createdAt,value
2024-05-09T00:00:40.956Z,76.20
2024-05-09T00:03:14.679Z,76.20
2024-05-09T00:05:49.217Z,76.30
2024-05-09T00:08:21.179Z,76.20
2024-05-09T00:10:56.333Z,76.20
2024-05-09T00:13:32.081Z,76.20
2024-05-09T00:16:05.838Z,76.20
2024-05-09T00:18:38.193Z,76.20
2024-05-09T00:21:10.325Z,76.30
2024-05-09T00:23:45.927Z,76.30
2024-05-09T00:26:21.538Z,76.10
2024-05-09T00:29:01.871Z,76.00
2024-05-09T00:31:37.911Z,76.00
2024-05-09T00:34:15.247Z,76.10
2024-05-09T00:36:49.696Z,76.10
2024-05-09T00:39:27.917Z,76.10
2024-05-09T00:42:07.332Z,76.00
2024-05-09T00:44:38.526Z,75.90
2024-05-09T00:47:24.922Z,75.90
2024-05-09T00:50:07.620Z,76.00
2024-05-09T00:52:43.988Z,76.00
2024-05-09T00:55:20.669Z,76.10
2024-05-09T00:57:57.408Z,76.10
2024-05-09T01:00:38.803Z,76.10
2024-05-09T01:03:16.535Z,76.10
2024-05-09T01:05:47.403Z,76.00
2024-05-09T01:08:23.178Z,75.90
2024-05-09T01:10:58.049Z,75.70
2024-05-09T01:13:35.342Z,75.50
2024-05-09T01:16:10.746Z,75.50
2024-05-09T01:18:58.988Z,75.70
2024-05-09T01:21:33.067Z,75.80
2024-05-09T01:24:05.823Z,75.90
2024-05-09T01:26:42.457Z,76.00
2024-05-09T01:29:15.970Z,76.00
2024-05-09T01:31:52.612Z,76.00
2024-05-09T01:34:34.366Z,76.00
2024-05-09T01:37:05.830Z,76.10
2024-05-09T01:39:40.910Z,75.90
2024-05-09T01:42:19.733Z,76.00
2024-05-09T01:44:58.450Z,76.10
2024-05-09T01:47:36.861Z,76.00
2024-05-09T01:50:11.564Z,76.00
2024-05-09T01:52:47.528Z,76.00
2024-05-09T01:55:28.676Z,76.00
2024-05-09T01:58:01.647Z,76.10
2024-05-09T02:00:39.424Z,75.90
2024-05-09T02:03:18.555Z,75.90
2024-05-09T02:05:51.989Z,75.90
2024-05-09T02:08:30.630Z,75.90
2024-05-09T02:11:09.817Z,75.90
2024-05-09T02:13:49.120Z,76.00
2024-05-09T02:16:24.986Z,75.80
2024-05-09T02:19:01.665Z,75.90
2024-05-09T02:21:34.455Z,76.10
2024-05-09T02:24:10.434Z,76.10
2024-05-09T02:26:53.280Z,76.10
2024-05-09T02:29:31.662Z,76.10
2024-05-09T02:32:05.009Z,76.00
2024-05-09T02:34:36.174Z,76.00
2024-05-09T02:37:07.001Z,76.10
2024-05-09T02:39:41.307Z,76.10
2024-05-09T02:42:14.398Z,76.10
2024-05-09T02:44:51.114Z,76.20
2024-05-09T02:47:20.401Z,76.10
2024-05-09T02:49:55.591Z,76.20
2024-05-09T02:52:24.573Z,76.30
2024-05-09T02:54:58.415Z,76.30
2024-05-09T03:00:34.199Z,76.40
2024-05-09T03:03:11.842Z,76.40
2024-05-09T03:05:50.782Z,76.50
2024-05-09T03:08:28.175Z,76.80
2024-05-09T03:10:59.934Z,77.00
2024-05-09T03:13:37.280Z,77.10
2024-05-09T03:16:09.203Z,77.30
2024-05-09T03:18:39.157Z,77.40
2024-05-09T03:21:11.542Z,77.50
2024-05-09T03:23:50.478Z,77.70
2024-05-09T03:26:21.870Z,77.90
2024-05-09T03:29:05.135Z,78.10
2024-05-09T03:31:36.248Z,78.30
2024-05-09T03:34:10.933Z,78.30
2024-05-09T03:36:45.413Z,78.50
2024-05-09T03:39:20.060Z,78.60
2024-05-09T03:41:54.889Z,78.80
2024-05-09T03:44:35.096Z,78.90
2024-05-09T03:47:09.922Z,78.90
2024-05-09T03:49:39.132Z,78.80
2024-05-09T03:52:19.568Z,78.90
2024-05-09T03:54:55.486Z,79.00
2024-05-09T03:57:27.124Z,79.00
2024-05-09T03:59:59.131Z,79.20
2024-05-09T04:02:37.980Z,79.20
2024-05-09T04:05:07.374Z,79.20
2024-05-09T04:07:42.903Z,79.40
2024-05-09T04:10:20.935Z,79.50
2024-05-09T04:13:06.765Z,79.60
2024-05-09T04:15:38.073Z,79.70
2024-05-09T04:18:10.311Z,79.70
2024-05-09T04:20:41.450Z,79.80
2024-05-09T04:23:16.342Z,79.90
2024-05-09T04:25:45.939Z,80.00
2024-05-09T04:28:18.897Z,80.10
2024-05-09T04:30:52.451Z,80.20
2024-05-09T04:33:28.707Z,80.30
2024-05-09T04:35:59.567Z,80.40
2024-05-09T04:38:33.064Z,80.40
2024-05-09T04:41:08.596Z,80.40
2024-05-09T04:43:39.000Z,80.40
2024-05-09T04:46:18.132Z,80.50
2024-05-09T04:48:52.194Z,80.60
2024-05-09T04:51:25.213Z,80.60
2024-05-09T04:54:08.464Z,80.80
2024-05-09T04:56:41.938Z,80.90
2024-05-09T04:59:16.652Z,80.80
2024-05-09T05:01:57.682Z,80.80
2024-05-09T05:04:35.931Z,80.90
2024-05-09T05:07:06.552Z,80.80
2024-05-09T05:09:45.453Z,80.80
2024-05-09T05:12:32.540Z,80.70
2024-05-09T05:15:10.298Z,80.80
2024-05-09T05:17:50.381Z,80.70
2024-05-09T05:20:30.681Z,80.70
2024-05-09T05:23:05.297Z,80.80
2024-05-09T05:25:36.032Z,80.80
2024-05-09T05:28:13.114Z,81.00
2024-05-09T05:30:48.650Z,81.00
2024-05-09T05:33:27.032Z,80.80
2024-05-09T05:35:58.747Z,80.90
2024-05-09T05:38:35.479Z,81.00
2024-05-09T05:41:07.428Z,80.90
2024-05-09T05:43:43.937Z,81.00
2024-05-09T05:46:11.590Z,81.30
2024-05-09T05:48:48.291Z,81.30
2024-05-09T05:51:19.248Z,81.10
2024-05-09T05:53:51.634Z,81.20
2024-05-09T05:56:30.905Z,81.30
2024-05-09T05:59:04.292Z,81.30
2024-05-09T06:01:36.981Z,81.50
2024-05-09T06:04:24.486Z,82.50
2024-05-09T06:07:11.959Z,83.10
2024-05-09T06:09:40.045Z,81.90
2024-05-09T06:12:12.293Z,80.10
2024-05-09T06:14:41.723Z,79.20
2024-05-09T06:17:18.306Z,78.50
2024-05-09T06:19:53.607Z,78.80
2024-05-09T06:22:25.862Z,78.80
2024-05-09T06:24:56.458Z,78.90
2024-05-09T06:27:33.716Z,79.10
2024-05-09T06:30:03.845Z,79.30
2024-05-09T06:32:42.703Z,79.60
2024-05-09T06:35:14.501Z,79.60
2024-05-09T06:37:48.373Z,79.60
2024-05-09T06:40:25.902Z,79.60
2024-05-09T06:43:14.363Z,79.80
2024-05-09T06:45:43.872Z,79.80
2024-05-09T06:48:16.343Z,80.00
2024-05-09T06:50:55.204Z,80.10
2024-05-09T06:53:37.681Z,80.30
2024-05-09T06:56:07.721Z,80.40
2024-05-09T06:58:43.265Z,80.50
2024-05-09T07:01:11.378Z,80.70
2024-05-09T07:03:47.614Z,80.90
2024-05-09T07:06:18.646Z,81.00
2024-05-09T07:08:54.174Z,81.20
2024-05-09T07:11:23.703Z,81.30
2024-05-09T07:14:03.354Z,81.30
2024-05-09T07:16:31.769Z,81.50
2024-05-09T07:19:05.626Z,81.70
2024-05-09T07:21:39.339Z,81.80
2024-05-09T07:24:17.865Z,81.90
2024-05-09T07:26:46.757Z,81.90
2024-05-09T07:29:20.113Z,82.10
2024-05-09T07:31:49.862Z,82.10
2024-05-09T07:34:31.214Z,82.20
2024-05-09T07:37:06.603Z,82.30
2024-05-09T07:39:43.806Z,82.30
2024-05-09T07:42:13.425Z,82.30
2024-05-09T07:44:49.931Z,82.40
2024-05-09T07:48:29.264Z,82.40
2024-05-09T07:53:36.108Z,82.50
2024-05-09T07:55:56.988Z,82.50
2024-05-09T07:58:28.053Z,82.40
2024-05-09T08:01:00.209Z,82.30
2024-05-09T08:03:29.671Z,82.20
2024-05-09T08:06:08.548Z,82.00
2024-05-09T08:08:40.814Z,81.60
2024-05-09T08:11:20.259Z,81.40
2024-05-09T08:13:48.716Z,81.20
2024-05-09T08:16:29.998Z,81.00
2024-05-09T08:18:58.923Z,80.70
2024-05-09T08:21:32.022Z,80.30
2024-05-09T08:24:11.339Z,80.20
2024-05-09T08:26:43.439Z,79.90
2024-05-09T08:29:13.530Z,79.80
2024-05-09T08:31:57.596Z,79.50
2024-05-09T08:34:30.932Z,79.20
2024-05-09T08:37:12.951Z,78.80
2024-05-09T08:39:48.909Z,78.40
2024-05-09T08:42:32.299Z,78.00
2024-05-09T08:45:00.391Z,77.40
2024-05-09T08:47:39.714Z,77.00
2024-05-09T08:50:31.474Z,76.40
2024-05-09T08:53:19.221Z,76.00
2024-05-09T08:55:58.861Z,75.90
2024-05-09T08:58:37.382Z,75.50
2024-05-09T09:01:06.502Z,75.30
2024-05-09T09:03:39.536Z,74.80
2024-05-09T09:06:11.591Z,74.30
2024-05-09T09:08:44.655Z,73.60
2024-05-09T09:11:23.618Z,73.10
2024-05-09T09:13:59.647Z,72.70
2024-05-09T09:16:33.890Z,72.30
2024-05-09T09:19:13.241Z,72.20
2024-05-09T09:21:43.167Z,71.80
2024-05-09T09:24:16.420Z,71.50
2024-05-09T09:26:51.947Z,70.70
2024-05-09T09:29:26.920Z,70.10
2024-05-09T09:32:00.629Z,69.70
2024-05-09T09:34:42.077Z,69.00
2024-05-09T09:37:15.233Z,68.50
2024-05-09T09:39:49.583Z,67.30
2024-05-09T09:42:27.938Z,66.70
2024-05-09T09:45:05.054Z,65.80
2024-05-09T09:47:39.967Z,65.80
2024-05-09T09:50:20.650Z,65.60
2024-05-09T09:53:00.089Z,65.30
2024-05-09T09:55:37.539Z,65.10
2024-05-09T09:58:15.184Z,64.70
2024-05-09T10:00:57.101Z,63.90
2024-05-09T10:03:27.938Z,63.60
2024-05-09T10:06:05.617Z,63.40
2024-05-09T10:08:38.735Z,63.10
2024-05-09T10:11:11.366Z,62.90
2024-05-09T10:13:44.922Z,62.60
2024-05-09T10:16:27.575Z,62.30
2024-05-09T10:18:55.705Z,62.30
2024-05-09T10:21:29.199Z,62.20
2024-05-09T10:23:59.802Z,61.80
2024-05-09T10:26:38.200Z,61.90
2024-05-09T10:29:24.170Z,61.80
2024-05-09T10:31:52.811Z,61.90
2024-05-09T10:34:28.512Z,62.00
2024-05-09T10:37:04.204Z,61.90
2024-05-09T10:39:42.023Z,61.90
2024-05-09T10:42:11.321Z,61.90
2024-05-09T10:44:51.105Z,61.60
2024-05-09T10:47:28.526Z,61.50
2024-05-09T10:50:15.640Z,61.60
2024-05-09T10:52:57.699Z,61.70
2024-05-09T10:55:28.464Z,61.40
2024-05-09T10:58:00.465Z,61.10
2024-05-09T11:00:46.032Z,60.50
2024-05-09T11:03:16.833Z,60.00
2024-05-09T11:05:48.031Z,59.90
2024-05-09T11:08:21.709Z,59.60
2024-05-09T11:10:56.651Z,59.70
2024-05-09T11:13:30.322Z,59.20
2024-05-09T11:16:26.839Z,59.20
2024-05-09T11:18:57.498Z,58.90
2024-05-09T11:21:29.678Z,59.00
2024-05-09T11:23:58.792Z,58.80
2024-05-09T11:26:32.400Z,58.70
2024-05-09T11:29:04.542Z,58.50
2024-05-09T11:31:51.136Z,58.40
2024-05-09T11:34:24.416Z,58.50
2024-05-09T11:36:54.278Z,58.60
2024-05-09T11:39:27.835Z,58.70
2024-05-09T11:41:57.497Z,58.70
2024-05-09T11:44:34.953Z,58.60
2024-05-09T11:47:05.467Z,58.30
2024-05-09T11:49:37.240Z,58.00
2024-05-09T11:52:07.458Z,58.00
2024-05-09T11:54:45.161Z,58.20
2024-05-09T11:57:13.665Z,58.10
2024-05-09T11:59:46.048Z,58.10
2024-05-09T12:02:19.955Z,58.00
2024-05-09T12:04:53.865Z,58.00
2024-05-09T12:07:25.292Z,58.10
2024-05-09T12:10:06.072Z,58.10
2024-05-09T12:12:38.738Z,58.00
2024-05-09T12:15:15.647Z,57.80
2024-05-09T12:17:50.851Z,57.70
2024-05-09T12:20:35.291Z,57.50
2024-05-09T12:23:10.425Z,57.30
2024-05-09T12:25:41.842Z,57.30
2024-05-09T12:28:19.132Z,57.40
2024-05-09T12:31:02.300Z,57.50
2024-05-09T12:33:39.195Z,57.70
2024-05-09T12:36:14.887Z,57.50
2024-05-09T12:38:45.078Z,57.50
2024-05-09T12:41:21.259Z,57.70
2024-05-09T12:43:59.186Z,57.80
2024-05-09T12:46:36.122Z,57.80
2024-05-09T12:49:09.004Z,57.80
2024-05-09T12:51:43.366Z,57.70
2024-05-09T12:54:13.717Z,57.80
2024-05-09T12:56:49.991Z,57.80
2024-05-09T12:59:21.872Z,57.80
2024-05-09T13:01:57.397Z,57.90
2024-05-09T13:04:33.194Z,58.10
2024-05-09T13:07:09.857Z,58.20
2024-05-09T13:09:40.351Z,58.30
2024-05-09T13:12:22.733Z,58.30
2024-05-09T13:14:55.722Z,58.10
2024-05-09T13:17:39.981Z,58.00
2024-05-09T13:20:25.730Z,58.00
2024-05-09T13:23:08.656Z,57.70
2024-05-09T13:25:41.442Z,57.70
2024-05-09T13:28:16.242Z,57.70
2024-05-09T13:30:43.597Z,57.60
2024-05-09T13:33:21.488Z,57.40
2024-05-09T13:36:02.032Z,57.40
2024-05-09T13:38:37.411Z,57.50
2024-05-09T13:41:06.555Z,57.50
2024-05-09T13:43:47.562Z,57.90
2024-05-09T13:46:16.795Z,57.90
2024-05-09T13:48:51.800Z,57.60
2024-05-09T13:51:31.851Z,57.50
2024-05-09T13:54:09.454Z,57.10
2024-05-09T13:56:42.265Z,57.10
2024-05-09T13:59:17.208Z,57.00
2024-05-09T14:01:50.117Z,57.00
2024-05-09T14:04:25.535Z,57.10
2024-05-09T14:07:02.046Z,57.00
2024-05-09T14:09:41.648Z,56.50
2024-05-09T14:12:11.791Z,56.70
2024-05-09T14:14:46.654Z,56.70
2024-05-09T14:17:15.384Z,56.60
2024-05-09T14:19:54.544Z,56.60
2024-05-09T14:22:29.311Z,56.60
2024-05-09T14:25:01.464Z,56.40
2024-05-09T14:27:31.259Z,56.40
2024-05-09T14:30:18.231Z,56.50
2024-05-09T14:32:55.732Z,56.40
2024-05-09T14:35:29.165Z,56.40
2024-05-09T14:38:05.051Z,56.10
2024-05-09T14:40:43.330Z,55.80
2024-05-09T14:43:16.233Z,55.80
2024-05-09T14:45:55.866Z,55.90
2024-05-09T14:48:23.803Z,55.80
2024-05-09T14:51:02.362Z,55.80
2024-05-09T14:53:34.702Z,55.70
2024-05-09T14:56:06.948Z,55.70
2024-05-09T14:58:36.121Z,55.70
2024-05-09T15:01:14.982Z,55.90
2024-05-09T15:03:45.876Z,55.90
2024-05-09T15:06:23.968Z,56.00
2024-05-09T15:09:07.615Z,56.00
2024-05-09T15:11:41.945Z,55.80
2024-05-09T15:14:09.605Z,55.80
2024-05-09T15:16:48.660Z,55.70
2024-05-09T15:19:18.323Z,55.80
2024-05-09T15:21:50.168Z,55.80
2024-05-09T15:24:21.068Z,55.80
2024-05-09T15:27:00.056Z,55.70
2024-05-09T15:29:29.795Z,55.70
2024-05-09T15:32:06.644Z,55.80
2024-05-09T15:34:38.778Z,55.70
2024-05-09T15:37:18.511Z,55.70
2024-05-09T15:39:51.907Z,55.40
2024-05-09T15:42:24.278Z,55.40
2024-05-09T15:45:03.844Z,55.40
2024-05-09T15:47:38.897Z,55.50
2024-05-09T15:50:20.268Z,55.40
2024-05-09T15:52:57.992Z,55.30
2024-05-09T15:55:34.929Z,55.20
2024-05-09T15:58:04.251Z,55.10
2024-05-09T16:00:40.523Z,55.30
2024-05-09T16:03:16.577Z,55.50
2024-05-09T16:05:49.187Z,55.70
2024-05-09T16:08:27.495Z,55.70
2024-05-09T16:11:10.829Z,55.90
2024-05-09T16:13:38.265Z,55.90
2024-05-09T16:16:09.210Z,55.80
2024-05-09T16:18:37.845Z,55.60
2024-05-09T16:21:15.870Z,55.70
2024-05-09T16:23:45.750Z,55.60
2024-05-09T16:26:24.664Z,55.60
2024-05-09T16:28:53.003Z,55.50
2024-05-09T16:31:33.255Z,55.40
2024-05-09T16:34:02.695Z,55.30
2024-05-09T16:36:36.069Z,55.40
2024-05-09T16:39:04.987Z,55.40
2024-05-09T16:41:45.068Z,55.40
2024-05-09T16:44:18.007Z,55.20
2024-05-09T16:46:52.098Z,55.30
2024-05-09T16:49:20.812Z,55.30
2024-05-09T16:51:52.547Z,55.30
2024-05-09T16:54:21.797Z,55.40
2024-05-09T16:57:01.284Z,55.60
2024-05-09T16:59:38.770Z,55.60
2024-05-09T17:02:16.328Z,55.70
2024-05-09T17:04:46.837Z,55.70
2024-05-09T17:07:19.897Z,55.70
2024-05-09T17:09:49.362Z,55.70
2024-05-09T17:12:28.425Z,55.60
2024-05-09T17:15:00.630Z,55.60
2024-05-09T17:17:31.110Z,55.60
2024-05-09T17:20:00.674Z,55.60
2024-05-09T17:22:35.082Z,55.50
2024-05-09T17:25:03.103Z,55.50
2024-05-09T17:27:43.514Z,55.50
2024-05-09T17:30:28.596Z,55.50
2024-05-09T17:33:11.730Z,55.60
2024-05-09T17:35:41.961Z,55.60
2024-05-09T17:38:18.487Z,55.60
2024-05-09T17:40:47.788Z,55.70
2024-05-09T17:43:29.356Z,55.70
2024-05-09T17:45:57.810Z,55.70
2024-05-09T17:48:36.874Z,55.70
2024-05-09T17:51:08.245Z,55.80
2024-05-09T17:53:45.656Z,56.00
2024-05-09T17:56:15.490Z,56.20
2024-05-09T17:58:51.686Z,56.40
2024-05-09T18:01:24.583Z,56.90
2024-05-09T18:03:56.690Z,57.10
2024-05-09T18:06:24.618Z,57.40
2024-05-09T18:11:46.218Z,58.00
2024-05-09T18:14:19.027Z,58.60
2024-05-09T18:16:49.127Z,59.20
2024-05-09T18:19:29.662Z,59.60
2024-05-09T18:21:58.590Z,60.00
2024-05-09T18:24:30.630Z,60.50
2024-05-09T18:27:09.735Z,60.90
2024-05-09T18:29:45.099Z,61.30
2024-05-09T18:32:14.948Z,61.70
2024-05-09T18:34:45.975Z,61.80
2024-05-09T18:37:29.610Z,62.10
2024-05-09T18:39:59.102Z,62.40
2024-05-09T18:42:37.042Z,62.60
2024-05-09T18:45:09.012Z,62.90
2024-05-09T18:47:48.933Z,63.40
2024-05-09T18:50:28.382Z,63.60
2024-05-09T18:53:13.917Z,63.70
2024-05-09T18:55:42.471Z,63.90
2024-05-09T18:58:18.032Z,64.10
2024-05-09T19:00:55.472Z,64.30
2024-05-09T19:03:35.874Z,64.60
2024-05-09T19:06:07.784Z,64.80
2024-05-09T19:08:39.412Z,65.00
2024-05-09T19:11:09.377Z,65.20
2024-05-09T19:13:47.581Z,65.30
2024-05-09T19:16:33.167Z,65.40
2024-05-09T19:19:13.768Z,65.90
2024-05-09T19:21:56.006Z,65.90
2024-05-09T19:24:32.062Z,66.10
2024-05-09T19:27:04.348Z,66.40
2024-05-09T19:29:37.397Z,66.50
2024-05-09T19:32:13.580Z,66.80
2024-05-09T19:34:48.708Z,67.10
2024-05-09T19:37:18.110Z,67.10
2024-05-09T19:39:52.326Z,67.30
2024-05-09T19:42:23.026Z,67.50
2024-05-09T19:44:57.896Z,67.60
2024-05-09T19:47:35.377Z,67.70
2024-05-09T19:50:14.062Z,67.90
2024-05-09T19:52:49.573Z,67.90
2024-05-09T19:55:21.233Z,68.00
2024-05-09T19:57:55.716Z,68.10
2024-05-09T20:00:38.882Z,68.20
2024-05-09T20:03:25.455Z,68.30
2024-05-09T20:06:01.200Z,68.60
2024-05-09T20:08:31.302Z,68.50
2024-05-09T20:11:01.044Z,68.60
2024-05-09T20:13:32.058Z,68.70
2024-05-09T20:16:17.279Z,68.80
2024-05-09T20:18:57.903Z,68.90
2024-05-09T20:21:27.058Z,69.10
2024-05-09T20:24:00.055Z,69.10
2024-05-09T20:26:37.148Z,69.30
2024-05-09T20:29:11.090Z,69.40
2024-05-09T20:31:41.238Z,69.50
2024-05-09T20:34:20.655Z,69.50
2024-05-09T20:36:49.896Z,69.80
2024-05-09T20:39:21.328Z,69.80
2024-05-09T20:41:50.056Z,69.90
2024-05-09T20:44:28.334Z,70.00
2024-05-09T20:46:56.715Z,70.20
2024-05-09T20:49:47.761Z,70.20
2024-05-09T20:52:18.043Z,70.40
2024-05-09T20:55:00.391Z,70.20
2024-05-09T20:57:34.879Z,70.40
2024-05-09T21:00:09.583Z,70.50
2024-05-09T21:02:44.716Z,70.60
2024-05-09T21:05:26.430Z,70.70
2024-05-09T21:07:56.918Z,70.70
2024-05-09T21:10:38.625Z,70.70
2024-05-09T21:13:07.802Z,70.70
2024-05-09T21:15:47.609Z,70.80
2024-05-09T21:18:19.206Z,70.80
2024-05-09T21:20:55.124Z,70.90
2024-05-09T21:23:28.203Z,71.00
2024-05-09T21:26:03.106Z,71.00
2024-05-09T21:28:30.991Z,70.90
2024-05-09T21:31:04.265Z,70.90
2024-05-09T21:33:34.638Z,71.00
2024-05-09T21:36:18.176Z,71.10
2024-05-09T21:38:45.506Z,71.30
2024-05-09T21:41:27.108Z,71.20
2024-05-09T21:44:04.756Z,71.30
2024-05-09T21:46:42.436Z,71.30
2024-05-09T21:49:12.846Z,71.20
2024-05-09T21:51:58.388Z,71.30
2024-05-09T21:54:33.949Z,71.40
2024-05-09T21:57:14.127Z,71.40
2024-05-09T21:59:42.536Z,71.40
2024-05-09T22:02:16.063Z,71.40
2024-05-09T22:04:48.429Z,71.40
2024-05-09T22:07:28.375Z,71.50
2024-05-09T22:09:59.500Z,71.60
2024-05-09T22:12:35.108Z,71.70
2024-05-09T22:15:02.995Z,71.90
2024-05-09T22:17:38.504Z,72.10
2024-05-09T22:20:14.787Z,72.00
2024-05-09T22:22:55.416Z,72.00
2024-05-09T22:25:27.290Z,72.00
2024-05-09T22:28:09.764Z,72.20
2024-05-09T22:30:40.095Z,72.40
2024-05-09T22:33:22.411Z,72.50
2024-05-09T22:35:53.093Z,72.40
2024-05-09T22:38:31.524Z,72.30
2024-05-09T22:41:01.486Z,72.30
2024-05-09T22:43:37.614Z,72.50
2024-05-09T22:46:06.702Z,72.50
2024-05-09T22:48:44.479Z,72.70
2024-05-09T22:51:17.760Z,72.70
2024-05-09T22:54:00.415Z,72.70
2024-05-09T22:56:30.319Z,72.70
2024-05-09T22:59:10.093Z,72.70
2024-05-09T23:01:38.726Z,72.70
2024-05-09T23:04:14.900Z,72.70
2024-05-09T23:06:47.033Z,72.50
2024-05-09T23:09:24.217Z,72.70
2024-05-09T23:12:03.071Z,72.70
2024-05-09T23:14:41.523Z,72.70
2024-05-09T23:17:10.694Z,72.70
2024-05-09T23:19:46.791Z,72.70
2024-05-09T23:22:17.294Z,72.70
2024-05-09T23:25:02.098Z,72.80
2024-05-09T23:27:32.080Z,73.00
2024-05-09T23:30:12.571Z,73.00
2024-05-09T23:32:48.607Z,72.90
2024-05-09T23:35:28.079Z,72.80
2024-05-09T23:37:59.742Z,72.70
2024-05-09T23:40:42.319Z,72.80
2024-05-09T23:43:13.305Z,73.00
2024-05-09T23:45:46.438Z,73.00
2024-05-09T23:48:16.595Z,73.10
2024-05-09T23:50:52.899Z,73.00
2024-05-09T23:53:23.850Z,73.00
2024-05-09T23:56:07.401Z,73.20
2024-05-09T23:58:35.201Z,73.40
